Time,TemperatureF,DewpointF,PressureIn,WindDirection,WindDirectionDegrees,WindSpeedMPH,WindSpeedGustMPH,Humidity,HourlyPrecipIn,Conditions,Clouds,dailyrainin,SoftwareType,DateUTC
2013-06-11 00:01:00,66.0,60.6,-100.00,NW,322,0.0,0.0,83,0.00,,,0.00,meteohub,2013-06-11 05:01:00,
2013-06-11 00:06:00,65.8,60.8,-100.00,NW,322,0.0,0.0,84,0.00,,,0.00,meteohub,2013-06-11 05:06:00,
2013-06-11 00:12:00,66.0,61.0,-100.00,NW,323,0.0,0.0,84,0.00,,,0.00,meteohub,2013-06-11 05:12:00,
2013-06-11 00:17:00,65.8,60.8,-100.00,NW,322,0.0,0.0,84,0.00,,,0.00,meteohub,2013-06-11 05:17:00,
2013-06-11 00:22:00,65.7,60.4,-100.00,NW,323,0.0,0.0,83,0.00,,,0.00,meteohub,2013-06-11 05:22:00,
2013-06-11 00:27:00,65.5,60.4,-100.00,NW,322,0.0,0.0,84,0.00,,,0.00,meteohub,2013-06-11 05:27:00,
2013-06-11 00:32:00,65.7,61.0,-100.00,NW,323,0.0,0.0,85,0.00,,,0.00,meteohub,2013-06-11 05:32:00,
2013-06-11 00:37:00,65.7,60.6,-100.00,NW,322,0.0,0.0,84,0.00,,,0.00,meteohub,2013-06-11 05:37:00,
2013-06-11 00:42:00,65.7,60.6,-100.00,NW,323,0.0,0.0,84,0.00,,,0.00,meteohub,2013-06-11 05:42:00,
2013-06-11 00:47:00,65.7,60.6,-100.00,NW,322,0.0,0.0,84,0.00,,,0.00,meteohub,2013-06-11 05:47:00,
2013-06-11 00:52:00,65.3,60.3,-100.00,NW,323,0.0,0.0,84,0.00,,,0.00,meteohub,2013-06-11 05:52:00,
2013-06-11 00:57:00,65.3,60.6,-100.00,NW,322,0.0,0.0,85,0.00,,,0.00,meteohub,2013-06-11 05:57:00,
2013-06-11 01:02:00,65.1,60.4,-100.00,NW,322,0.0,0.0,85,0.00,,,0.00,meteohub,2013-06-11 06:02:00,
2013-06-11 01:07:00,65.1,60.4,-100.00,NW,323,0.0,0.0,85,0.00,,,0.00,meteohub,2013-06-11 06:07:00,
2013-06-11 01:12:00,65.1,60.8,-100.00,NW,323,0.0,0.0,86,0.00,,,0.00,meteohub,2013-06-11 06:12:00,
2013-06-11 01:17:00,65.3,61.0,-100.00,NW,323,0.0,0.0,86,0.00,,,0.00,meteohub,2013-06-11 06:17:00,
2013-06-11 01:22:00,65.3,61.0,-100.00,NW,323,0.0,0.0,86,0.00,,,0.00,meteohub,2013-06-11 06:22:00,
2013-06-11 01:27:00,65.7,61.3,-100.00,NW,322,0.0,0.0,86,0.00,,,0.00,meteohub,2013-06-11 06:27:00,
2013-06-11 01:32:00,65.7,61.3,-100.00,NW,323,0.0,0.0,86,0.00,,,0.00,meteohub,2013-06-11 06:32:00,
2013-06-11 01:37:00,65.5,61.2,-100.00,NW,322,0.0,0.0,86,0.00,,,0.00,meteohub,2013-06-11 06:37:00,
2013-06-11 01:42:00,65.1,60.8,-100.00,NW,322,0.0,0.0,86,0.00,,,0.00,meteohub,2013-06-11 06:42:00,
2013-06-11 01:47:00,64.9,61.0,-100.00,NW,323,0.0,0.0,87,0.00,,,0.00,meteohub,2013-06-11 06:47:00,
2013-06-11 01:52:00,64.8,60.8,-100.00,NW,323,0.0,0.0,87,0.00,,,0.00,meteohub,2013-06-11 06:52:00,
2013-06-11 01:57:00,64.6,60.6,-100.00,NW,323,0.0,0.0,87,0.00,,,0.00,meteohub,2013-06-11 06:57:00,
2013-06-11 02:02:00,64.4,60.4,-100.00,NW,323,0.0,0.0,87,0.00,,,0.00,meteohub,2013-06-11 07:02:00,
2013-06-11 02:07:00,64.2,60.6,-100.00,NW,323,0.0,0.0,88,0.00,,,0.00,meteohub,2013-06-11 07:07:00,
2013-06-11 02:12:00,64.0,60.4,-100.00,NW,323,0.0,0.0,88,0.00,,,0.00,meteohub,2013-06-11 07:12:00,
2013-06-11 02:17:00,64.0,60.8,-100.00,NW,322,0.0,0.0,89,0.00,,,0.00,meteohub,2013-06-11 07:17:00,
2013-06-11 02:22:00,63.9,60.6,-100.00,NW,323,0.0,0.0,89,0.00,,,0.00,meteohub,2013-06-11 07:22:00,
2013-06-11 02:27:00,63.9,60.6,-100.00,NW,322,0.0,0.0,89,0.00,,,0.00,meteohub,2013-06-11 07:27:00,
2013-06-11 02:32:00,63.9,60.8,-100.00,NW,323,0.0,0.0,90,0.00,,,0.00,meteohub,2013-06-11 07:32:00,
2013-06-11 02:37:00,63.9,60.6,-100.00,NW,323,0.0,0.0,89,0.00,,,0.00,meteohub,2013-06-11 07:37:00,
2013-06-11 02:42:00,63.9,60.8,-100.00,NW,322,0.0,0.0,90,0.00,,,0.00,meteohub,2013-06-11 07:42:00,
2013-06-11 02:44:00,63.9,60.8,-100.00,NW,322,0.0,0.0,90,0.00,,,0.00,meteohub,2013-06-11 07:44:00,
2013-06-11 02:49:00,63.9,60.8,-100.00,NW,323,0.0,0.0,90,0.00,,,0.00,meteohub,2013-06-11 07:49:00,
2013-06-11 02:54:00,63.9,60.8,-100.00,NW,322,0.0,0.0,90,0.00,,,0.00,meteohub,2013-06-11 07:54:00,
2013-06-11 02:59:00,63.7,60.6,-100.00,NW,322,0.0,0.0,90,0.00,,,0.00,meteohub,2013-06-11 07:59:00,
2013-06-11 03:04:00,63.7,60.6,-100.00,NW,323,0.0,0.0,90,0.00,,,0.00,meteohub,2013-06-11 08:04:00,
2013-06-11 03:09:00,63.9,61.2,-100.00,NW,322,0.0,0.0,91,0.00,,,0.00,meteohub,2013-06-11 08:09:00,
2013-06-11 03:14:00,64.0,61.0,-100.00,NW,323,0.0,0.0,90,0.00,,,0.00,meteohub,2013-06-11 08:14:00,
2013-06-11 03:19:00,63.9,60.8,-100.00,NW,323,0.0,0.0,90,0.00,,,0.00,meteohub,2013-06-11 08:19:00,
2013-06-11 03:24:00,63.7,60.6,-100.00,NNE,13,2.0,0.0,90,0.00,,,0.00,meteohub,2013-06-11 08:24:00,
2013-06-11 03:29:00,63.3,60.6,-100.00,NNE,13,0.0,0.0,91,0.00,,,0.00,meteohub,2013-06-11 08:29:00,
2013-06-11 03:34:00,63.9,61.2,-100.00,NNE,32,2.0,4.0,91,0.00,,,0.00,meteohub,2013-06-11 08:34:00,
2013-06-11 03:39:00,63.9,60.8,-100.00,NNE,32,0.0,4.0,90,0.00,,,0.00,meteohub,2013-06-11 08:39:00,
2013-06-11 03:44:00,63.9,60.8,-100.00,NNE,32,0.0,3.0,90,0.00,,,0.00,meteohub,2013-06-11 08:44:00,
2013-06-11 03:49:00,63.9,60.8,-100.00,NNE,32,0.0,3.0,90,0.00,,,0.00,meteohub,2013-06-11 08:49:00,
2013-06-11 03:54:00,63.7,60.6,-100.00,NNE,32,0.0,2.0,90,0.00,,,0.00,meteohub,2013-06-11 08:54:00,
2013-06-11 03:59:00,63.3,60.3,-100.00,NNE,32,0.0,0.0,90,0.00,,,0.00,meteohub,2013-06-11 08:59:00,
2013-06-11 04:04:00,63.0,59.9,-100.00,NNE,32,0.0,0.0,90,0.00,,,0.00,meteohub,2013-06-11 09:04:00,
2013-06-11 04:09:00,62.6,59.5,-100.00,NNE,32,0.0,0.0,90,0.00,,,0.00,meteohub,2013-06-11 09:09:00,
2013-06-11 04:14:00,62.4,59.4,-100.00,NNE,32,0.0,0.0,90,0.00,,,0.00,meteohub,2013-06-11 09:14:00,
2013-06-11 04:19:00,62.2,59.5,-100.00,NNE,32,0.0,0.0,91,0.00,,,0.00,meteohub,2013-06-11 09:19:00,
2013-06-11 04:24:00,62.1,59.4,-100.00,NNE,32,0.0,0.0,91,0.00,,,0.00,meteohub,2013-06-11 09:24:00,
2013-06-11 04:29:00,61.9,59.2,-100.00,NNE,32,0.0,0.0,91,0.00,,,0.00,meteohub,2013-06-11 09:29:00,
2013-06-11 04:34:00,61.9,59.5,-100.00,NNE,32,0.0,0.0,92,0.00,,,0.00,meteohub,2013-06-11 09:34:00,
2013-06-11 04:39:00,61.9,59.5,-100.00,NNE,32,0.0,0.0,92,0.00,,,0.00,meteohub,2013-06-11 09:39:00,
2013-06-11 04:44:00,61.7,59.4,-100.00,NNE,32,0.0,0.0,92,0.00,,,0.00,meteohub,2013-06-11 09:44:00,
2013-06-11 04:49:00,61.7,59.4,-100.00,NNE,32,0.0,0.0,92,0.00,,,0.00,meteohub,2013-06-11 09:49:00,
2013-06-11 04:54:00,61.9,59.5,-100.00,NNE,32,0.0,0.0,92,0.00,,,0.00,meteohub,2013-06-11 09:54:00,
2013-06-11 04:59:00,62.2,60.3,-100.00,NNE,32,0.0,0.0,93,0.00,,,0.00,meteohub,2013-06-11 09:59:00,
2013-06-11 05:04:00,62.8,60.8,-100.00,NNE,32,0.0,1.0,93,0.00,,,0.00,meteohub,2013-06-11 10:04:00,
2013-06-11 05:09:00,62.8,60.4,-100.00,NNE,32,0.0,1.0,92,0.00,,,0.00,meteohub,2013-06-11 10:09:00,
2013-06-11 05:14:00,62.8,60.4,-100.00,NNE,32,0.0,2.0,92,0.00,,,0.00,meteohub,2013-06-11 10:14:00,
2013-06-11 05:19:00,62.8,60.4,-100.00,NNE,32,0.0,2.0,92,0.00,,,0.00,meteohub,2013-06-11 10:19:00,
2013-06-11 05:24:00,62.8,60.4,-100.00,NNE,32,0.0,2.0,92,0.00,,,0.00,meteohub,2013-06-11 10:24:00,
2013-06-11 05:29:00,63.0,60.6,-100.00,NNE,32,0.0,2.0,92,0.00,,,0.00,meteohub,2013-06-11 10:29:00,
2013-06-11 05:34:00,62.8,60.4,-100.00,NNE,32,0.0,3.0,92,0.00,,,0.00,meteohub,2013-06-11 10:34:00,
2013-06-11 05:39:00,62.6,60.3,-100.00,NNE,32,0.0,3.0,92,0.00,,,0.00,meteohub,2013-06-11 10:39:00,
2013-06-11 05:44:00,62.6,60.3,-100.00,NNE,32,0.0,3.0,92,0.00,,,0.00,meteohub,2013-06-11 10:44:00,
2013-06-11 05:49:00,62.6,60.3,-100.00,NNE,32,0.0,0.0,92,0.00,,,0.00,meteohub,2013-06-11 10:49:00,
2013-06-11 05:54:00,63.0,60.6,-100.00,NE,49,0.0,0.0,92,0.00,,,0.00,meteohub,2013-06-11 10:54:00,
2013-06-11 05:59:00,63.1,60.8,-100.00,NE,49,2.0,2.0,92,0.00,,,0.00,meteohub,2013-06-11 10:59:00,
2013-06-11 06:04:00,63.3,61.0,-100.00,NE,50,0.0,2.0,92,0.00,,,0.00,meteohub,2013-06-11 11:04:00,
2013-06-11 06:09:00,63.7,61.3,-100.00,NE,49,0.0,3.0,92,0.00,,,0.00,meteohub,2013-06-11 11:09:00,
2013-06-11 06:14:00,63.9,61.5,-100.00,NE,52,0.0,3.0,92,0.00,,,0.00,meteohub,2013-06-11 11:14:00,
2013-06-11 06:19:00,64.2,61.5,-100.00,NE,53,2.0,3.0,91,0.00,,,0.00,meteohub,2013-06-11 11:19:00,
2013-06-11 06:24:00,64.4,61.7,-100.00,ENE,63,2.0,3.0,91,0.00,,,0.00,meteohub,2013-06-11 11:24:00,
2013-06-11 06:29:00,64.8,62.1,-100.00,ENE,64,0.0,4.0,91,0.00,,,0.00,meteohub,2013-06-11 11:29:00,
2013-06-11 06:35:00,65.1,62.4,-100.00,ENE,64,2.0,5.0,91,0.00,,,0.00,meteohub,2013-06-11 11:35:00,
2013-06-11 06:40:00,65.5,62.4,-100.00,ENE,65,0.0,5.0,90,0.00,,,0.00,meteohub,2013-06-11 11:40:00,
2013-06-11 06:45:00,65.5,62.4,-100.00,ENE,64,0.0,5.0,90,0.00,,,0.00,meteohub,2013-06-11 11:45:00,
2013-06-11 06:50:00,65.5,62.4,-100.00,ENE,65,2.0,3.0,90,0.00,,,0.00,meteohub,2013-06-11 11:50:00,
2013-06-11 06:55:00,65.5,62.4,-100.00,ENE,65,0.0,4.0,90,0.00,,,0.00,meteohub,2013-06-11 11:55:00,
2013-06-11 07:00:00,65.7,62.6,-100.00,ENE,65,0.0,4.0,90,0.00,,,0.00,meteohub,2013-06-11 12:00:00,
2013-06-11 07:05:00,66.2,63.1,-100.00,ENE,67,2.0,3.0,90,0.00,,,0.00,meteohub,2013-06-11 12:05:00,
2013-06-11 07:10:00,66.6,63.1,-100.00,ESE,122,1.0,3.0,89,0.00,,,0.00,meteohub,2013-06-11 12:10:00,
2013-06-11 07:15:00,67.3,63.7,-100.00,SE,124,1.0,5.0,88,0.00,,,0.00,meteohub,2013-06-11 12:15:00,
2013-06-11 07:20:00,67.8,63.9,-100.00,SE,125,0.0,6.0,87,0.00,,,0.00,meteohub,2013-06-11 12:20:00,
2013-06-11 07:25:00,68.4,64.4,-100.00,ESE,119,0.0,6.0,87,0.00,,,0.00,meteohub,2013-06-11 12:25:00,
2013-06-11 07:30:00,69.1,64.8,-100.00,SE,128,0.0,5.0,86,0.00,,,0.00,meteohub,2013-06-11 12:30:00,
2013-06-11 07:35:00,69.6,64.9,-100.00,SE,126,0.0,6.0,85,0.00,,,0.00,meteohub,2013-06-11 12:35:00,
2013-06-11 07:40:00,70.2,65.1,-100.00,ESE,117,1.0,6.0,84,0.00,,,0.00,meteohub,2013-06-11 12:40:00,
2013-06-11 07:45:00,70.3,65.3,-100.00,SE,131,1.0,6.0,84,0.00,,,0.00,meteohub,2013-06-11 12:45:00,
2013-06-11 07:50:00,70.5,65.1,-100.00,ESE,122,2.0,6.0,83,0.00,,,0.00,meteohub,2013-06-11 12:50:00,
2013-06-11 07:55:00,70.9,65.1,-100.00,ESE,119,4.0,6.0,82,0.00,,,0.00,meteohub,2013-06-11 12:55:00,
2013-06-11 08:00:00,70.9,65.1,-100.00,SE,128,2.0,6.0,82,0.00,,,0.00,meteohub,2013-06-11 13:00:00,
2013-06-11 08:05:00,70.9,65.1,-100.00,ESE,118,0.0,6.0,82,0.00,,,0.00,meteohub,2013-06-11 13:05:00,
2013-06-11 08:10:00,71.1,64.9,-100.00,SE,125,0.0,5.0,81,0.00,,,0.00,meteohub,2013-06-11 13:10:00,
2013-06-11 08:15:00,71.4,65.3,-100.00,SE,137,6.0,6.0,81,0.00,,,0.00,meteohub,2013-06-11 13:15:00,
2013-06-11 08:20:00,72.1,65.7,-100.00,ESE,115,3.0,8.0,80,0.00,,,0.00,meteohub,2013-06-11 13:20:00,
2013-06-11 08:25:00,72.7,65.8,-100.00,ESE,115,0.0,8.0,79,0.00,,,0.00,meteohub,2013-06-11 13:25:00,
2013-06-11 08:30:00,73.0,65.8,-100.00,ESE,105,6.0,9.0,78,0.00,,,0.00,meteohub,2013-06-11 13:30:00,
2013-06-11 08:35:00,73.6,65.8,-100.00,SE,128,4.0,10.0,77,0.00,,,0.00,meteohub,2013-06-11 13:35:00,
2013-06-11 08:40:00,73.9,66.2,-100.00,ESE,121,4.0,10.0,77,0.00,,,0.00,meteohub,2013-06-11 13:40:00,
2013-06-11 08:47:00,74.1,66.0,-100.00,SE,132,3.0,7.0,76,0.00,,,0.00,meteohub,2013-06-11 13:47:00,
2013-06-11 08:52:00,74.5,66.4,-100.00,ESE,110,2.0,9.0,76,0.00,,,0.00,meteohub,2013-06-11 13:52:00,
2013-06-11 08:57:00,74.8,66.4,-100.00,ESE,115,6.0,11.0,75,0.00,,,0.00,meteohub,2013-06-11 13:57:00,
2013-06-11 09:03:00,75.4,66.6,-100.00,SE,141,5.0,11.0,74,0.00,,,0.00,meteohub,2013-06-11 14:03:00,
2013-06-11 09:08:00,75.6,66.7,-100.00,SE,130,5.0,11.0,74,0.00,,,0.00,meteohub,2013-06-11 14:08:00,
2013-06-11 09:13:00,76.3,66.6,-100.00,SE,126,4.0,11.0,72,0.00,,,0.00,meteohub,2013-06-11 14:13:00,
2013-06-11 09:18:00,76.6,66.6,-100.00,ESE,123,4.0,13.0,71,0.00,,,0.00,meteohub,2013-06-11 14:18:00,
2013-06-11 09:23:00,77.0,66.9,-100.00,ESE,103,3.0,13.0,71,0.00,,,0.00,meteohub,2013-06-11 14:23:00,
2013-06-11 09:28:00,77.2,67.1,-100.00,ESE,118,4.0,13.0,71,0.00,,,0.00,meteohub,2013-06-11 14:28:00,
2013-06-11 09:33:00,77.5,67.5,-100.00,SSE,157,3.0,11.0,71,0.00,,,0.00,meteohub,2013-06-11 14:33:00,
2013-06-11 09:38:00,78.3,67.3,-100.00,SE,136,5.0,11.0,69,0.00,,,0.00,meteohub,2013-06-11 14:38:00,
2013-06-11 09:43:00,78.6,67.6,-100.00,SE,138,4.0,10.0,69,0.00,,,0.00,meteohub,2013-06-11 14:43:00,
2013-06-11 09:48:00,78.6,67.6,-100.00,SE,132,0.0,12.0,69,0.00,,,0.00,meteohub,2013-06-11 14:48:00,
2013-06-11 09:53:00,79.3,67.8,-100.00,SE,130,4.0,12.0,68,0.00,,,0.00,meteohub,2013-06-11 14:53:00,
2013-06-11 09:58:00,79.5,68.0,-100.00,SSW,199,2.0,14.0,68,0.00,,,0.00,meteohub,2013-06-11 14:58:00,
2013-06-11 10:03:00,79.5,68.0,-100.00,SE,129,1.0,14.0,68,0.00,,,0.00,meteohub,2013-06-11 15:03:00,
2013-06-11 10:08:00,79.3,68.4,-100.00,ESE,115,5.0,14.0,69,0.00,,,0.00,meteohub,2013-06-11 15:08:00,
2013-06-11 10:13:00,79.2,68.2,-100.00,SSE,166,0.0,14.0,69,0.00,,,0.00,meteohub,2013-06-11 15:13:00,
2013-06-11 10:18:00,79.7,69.1,-100.00,SE,131,3.0,14.0,70,0.00,,,0.00,meteohub,2013-06-11 15:18:00,
2013-06-11 10:23:00,80.4,68.9,-100.00,SE,137,2.0,13.0,68,0.00,,,0.00,meteohub,2013-06-11 15:23:00,
2013-06-11 10:28:00,81.3,70.2,-100.00,SSE,157,0.0,13.0,69,0.00,,,0.00,meteohub,2013-06-11 15:28:00,
2013-06-11 10:33:00,82.2,69.8,-100.00,SE,130,3.0,13.0,66,0.00,,,0.00,meteohub,2013-06-11 15:33:00,
2013-06-11 10:38:00,82.0,69.6,-100.00,ESE,107,3.0,12.0,66,0.00,,,0.00,meteohub,2013-06-11 15:38:00,
2013-06-11 10:43:00,82.4,70.3,-100.00,SSW,195,1.0,11.0,67,0.00,,,0.00,meteohub,2013-06-11 15:43:00,
2013-06-11 10:48:00,83.1,70.5,-100.00,ESE,119,0.0,11.0,66,0.00,,,0.00,meteohub,2013-06-11 15:48:00,
2013-06-11 10:53:00,83.7,70.2,-100.00,ESE,103,3.0,11.0,64,0.00,,,0.00,meteohub,2013-06-11 15:53:00,
2013-06-11 10:58:00,84.0,71.1,-100.00,SSW,202,9.0,15.0,65,0.00,,,0.00,meteohub,2013-06-11 15:58:00,
2013-06-11 11:03:00,84.0,70.5,-100.00,ESE,121,8.0,15.0,64,0.00,,,0.00,meteohub,2013-06-11 16:03:00,
2013-06-11 11:08:00,84.2,71.2,-100.00,SE,142,0.0,16.0,65,0.00,,,0.00,meteohub,2013-06-11 16:08:00,
2013-06-11 11:13:00,84.7,71.6,-100.00,SSW,207,0.0,16.0,65,0.00,,,0.00,meteohub,2013-06-11 16:13:00,
2013-06-11 11:18:00,85.6,72.1,-100.00,South,170,0.0,16.0,64,0.00,,,0.00,meteohub,2013-06-11 16:18:00,
2013-06-11 11:23:00,86.7,72.7,-100.00,South,179,11.0,12.0,63,0.00,,,0.00,meteohub,2013-06-11 16:23:00,
2013-06-11 11:28:00,86.9,71.8,-100.00,SE,144,0.0,12.0,61,0.00,,,0.00,meteohub,2013-06-11 16:28:00,
2013-06-11 11:33:00,87.3,72.1,-100.00,SSW,202,6.0,17.0,61,0.00,,,0.00,meteohub,2013-06-11 16:33:00,
2013-06-11 11:38:00,87.1,72.0,-100.00,SW,229,10.0,18.0,61,0.00,,,0.00,meteohub,2013-06-11 16:38:00,
2013-06-11 11:43:00,86.9,72.3,-100.00,South,173,3.0,19.0,62,0.00,,,0.00,meteohub,2013-06-11 16:43:00,
2013-06-11 11:48:00,87.3,72.7,-100.00,SSW,208,5.0,19.0,62,0.00,,,0.00,meteohub,2013-06-11 16:48:00,
2013-06-11 11:53:00,88.3,73.2,-100.00,SSW,211,6.0,19.0,61,0.00,,,0.00,meteohub,2013-06-11 16:53:00,
2013-06-11 11:58:00,88.9,73.2,-100.00,SSW,210,0.0,15.0,60,0.00,,,0.00,meteohub,2013-06-11 16:58:00,
2013-06-11 12:03:00,89.4,73.8,-100.00,SSW,205,5.0,14.0,60,0.00,,,0.00,meteohub,2013-06-11 17:03:00,
2013-06-11 12:08:00,89.4,71.6,-100.00,SW,225,11.0,14.0,56,0.00,,,0.00,meteohub,2013-06-11 17:08:00,
2013-06-11 12:13:00,88.9,72.1,-100.00,WSW,250,10.0,18.0,58,0.00,,,0.00,meteohub,2013-06-11 17:13:00,
2013-06-11 12:18:00,90.1,72.9,-100.00,SSW,199,4.0,21.0,57,0.00,,,0.00,meteohub,2013-06-11 17:18:00,
2013-06-11 12:23:00,90.1,71.2,-100.00,SW,223,15.0,21.0,54,0.00,,,0.00,meteohub,2013-06-11 17:23:00,
2013-06-11 12:28:00,90.3,72.0,-100.00,SW,227,15.0,17.0,55,0.00,,,0.00,meteohub,2013-06-11 17:28:00,
2013-06-11 12:33:00,90.1,72.3,-100.00,West,264,1.0,20.0,56,0.00,,,0.00,meteohub,2013-06-11 17:33:00,
2013-06-11 12:38:00,90.9,72.0,-100.00,SW,218,3.0,20.0,54,0.00,,,0.00,meteohub,2013-06-11 17:38:00,
2013-06-11 12:43:00,90.3,72.0,-100.00,SW,234,7.0,20.0,55,0.00,,,0.00,meteohub,2013-06-11 17:43:00,
2013-06-11 12:48:00,90.9,72.5,-100.00,SSW,199,9.0,16.0,55,0.00,,,0.00,meteohub,2013-06-11 17:48:00,
2013-06-11 12:53:00,90.1,71.2,-100.00,SW,215,6.0,16.0,54,0.00,,,0.00,meteohub,2013-06-11 17:53:00,
2013-06-11 12:58:00,89.2,71.4,-100.00,SW,216,3.0,16.0,56,0.00,,,0.00,meteohub,2013-06-11 17:58:00,
2013-06-11 13:03:00,89.4,71.6,-100.00,SW,234,5.0,16.0,56,0.00,,,0.00,meteohub,2013-06-11 18:03:00,
2013-06-11 13:08:00,89.4,71.6,-100.00,WSW,246,0.0,15.0,56,0.00,,,0.00,meteohub,2013-06-11 18:08:00,
2013-06-11 13:13:00,90.1,71.8,-100.00,SSW,196,1.0,15.0,55,0.00,,,0.00,meteohub,2013-06-11 18:13:00,
2013-06-11 13:18:00,90.0,71.6,-100.00,SSW,210,2.0,11.0,55,0.00,,,0.00,meteohub,2013-06-11 18:18:00,
2013-06-11 13:23:00,90.1,70.7,-100.00,WSW,237,1.0,12.0,53,0.00,,,0.00,meteohub,2013-06-11 18:23:00,
2013-06-11 13:28:00,91.4,72.3,-100.00,WSW,250,0.0,12.0,54,0.00,,,0.00,meteohub,2013-06-11 18:28:00,
2013-06-11 13:33:00,91.6,72.0,-100.00,SSW,210,11.0,13.0,53,0.00,,,0.00,meteohub,2013-06-11 18:33:00,
2013-06-11 13:38:00,90.7,71.2,-100.00,SSW,192,0.0,13.0,53,0.00,,,0.00,meteohub,2013-06-11 18:38:00,
2013-06-11 13:43:00,90.9,71.4,-100.00,SSW,202,9.0,12.0,53,0.00,,,0.00,meteohub,2013-06-11 18:43:00,
2013-06-11 13:48:00,90.1,70.7,-100.00,SSW,205,0.0,13.0,53,0.00,,,0.00,meteohub,2013-06-11 18:48:00,
2013-06-11 13:53:00,89.8,70.9,-100.00,SW,219,10.0,13.0,54,0.00,,,0.00,meteohub,2013-06-11 18:53:00,
2013-06-11 13:58:00,89.6,71.8,-100.00,SSW,211,4.0,13.0,56,0.00,,,0.00,meteohub,2013-06-11 18:58:00,
2013-06-11 14:03:00,90.3,71.4,-100.00,SSW,202,6.0,13.0,54,0.00,,,0.00,meteohub,2013-06-11 19:03:00,
2013-06-11 14:08:00,90.7,72.3,-100.00,SW,214,0.0,13.0,55,0.00,,,0.00,meteohub,2013-06-11 19:08:00,
2013-06-11 14:13:00,90.5,71.1,-100.00,SW,222,3.0,11.0,53,0.00,,,0.00,meteohub,2013-06-11 19:13:00,
2013-06-11 14:18:00,90.1,71.8,-100.00,SSW,211,0.0,13.0,55,0.00,,,0.00,meteohub,2013-06-11 19:18:00,
2013-06-11 14:24:00,89.4,71.6,-100.00,SW,221,5.0,13.0,56,0.00,,,0.00,meteohub,2013-06-11 19:24:00,
2013-06-11 14:29:00,89.4,71.6,-100.00,South,189,5.0,14.0,56,0.00,,,0.00,meteohub,2013-06-11 19:29:00,
2013-06-11 14:34:00,89.1,72.3,-100.00,SW,228,10.0,14.0,58,0.00,,,0.00,meteohub,2013-06-11 19:34:00,
2013-06-11 14:39:00,88.9,72.1,-100.00,SSW,192,0.0,13.0,58,0.00,,,0.00,meteohub,2013-06-11 19:39:00,
2013-06-11 14:44:00,89.1,72.3,-100.00,SSW,208,3.0,13.0,58,0.00,,,0.00,meteohub,2013-06-11 19:44:00,
2013-06-11 14:49:00,89.2,72.0,-100.00,South,188,2.0,13.0,57,0.00,,,0.00,meteohub,2013-06-11 19:49:00,
2013-06-11 14:54:00,89.2,72.5,-100.00,SSW,205,2.0,13.0,58,0.00,,,0.00,meteohub,2013-06-11 19:54:00,
2013-06-11 14:59:00,89.4,72.1,-100.00,South,183,7.0,13.0,57,0.00,,,0.00,meteohub,2013-06-11 19:59:00,
2013-06-11 15:04:00,90.1,72.3,-100.00,SW,232,9.0,14.0,56,0.00,,,0.00,meteohub,2013-06-11 20:04:00,
2013-06-11 15:09:00,90.5,72.7,-100.00,SW,225,0.0,14.0,56,0.00,,,0.00,meteohub,2013-06-11 20:09:00,
2013-06-11 15:14:00,90.5,72.7,-100.00,SW,223,4.0,18.0,56,0.00,,,0.00,meteohub,2013-06-11 20:14:00,
2013-06-11 15:19:00,90.9,72.5,-100.00,SW,214,6.0,18.0,55,0.00,,,0.00,meteohub,2013-06-11 20:19:00,
2013-06-11 15:24:00,90.7,71.8,-100.00,SSW,203,5.0,18.0,54,0.00,,,0.00,meteohub,2013-06-11 20:24:00,
2013-06-11 15:29:00,90.1,72.3,-100.00,SW,215,9.0,13.0,56,0.00,,,0.00,meteohub,2013-06-11 20:29:00,
2013-06-11 15:34:00,90.0,72.7,-100.00,SW,221,0.0,13.0,57,0.00,,,0.00,meteohub,2013-06-11 20:34:00,
2013-06-11 15:39:00,90.3,73.0,-100.00,SW,224,0.0,13.0,57,0.00,,,0.00,meteohub,2013-06-11 20:39:00,
2013-06-11 15:44:00,90.7,72.9,-100.00,SW,234,4.0,12.0,56,0.00,,,0.00,meteohub,2013-06-11 20:44:00,
2013-06-11 15:49:00,90.9,72.5,-100.00,SW,220,0.0,11.0,55,0.00,,,0.00,meteohub,2013-06-11 20:49:00,
2013-06-11 15:54:00,90.3,71.4,-100.00,SW,221,3.0,11.0,54,0.00,,,0.00,meteohub,2013-06-11 20:54:00,
2013-06-11 15:59:00,90.0,71.1,-100.00,SSW,209,0.0,11.0,54,0.00,,,0.00,meteohub,2013-06-11 20:59:00,
2013-06-11 16:04:00,89.4,70.5,-100.00,SSW,209,4.0,10.0,54,0.00,,,0.00,meteohub,2013-06-11 21:04:00,
2013-06-11 16:09:00,89.4,69.4,-100.00,SW,218,3.0,13.0,52,0.00,,,0.00,meteohub,2013-06-11 21:09:00,
2013-06-11 16:14:00,90.0,70.0,-100.00,SW,234,0.0,13.0,52,0.00,,,0.00,meteohub,2013-06-11 21:14:00,
2013-06-11 16:19:00,90.7,70.7,-100.00,SW,223,2.0,13.0,52,0.00,,,0.00,meteohub,2013-06-11 21:19:00,
2013-06-11 16:24:00,90.7,70.0,-100.00,SSW,209,0.0,10.0,51,0.00,,,0.00,meteohub,2013-06-11 21:24:00,
2013-06-11 16:29:00,90.9,70.9,-100.00,SSW,207,0.0,7.0,52,0.00,,,0.00,meteohub,2013-06-11 21:29:00,
2013-06-11 16:34:00,91.8,71.1,-100.00,SW,223,0.0,6.0,51,0.00,,,0.00,meteohub,2013-06-11 21:34:00,
2013-06-11 16:39:00,91.8,71.6,-100.00,SW,230,0.0,5.0,52,0.00,,,0.00,meteohub,2013-06-11 21:39:00,
2013-06-11 16:44:00,90.9,70.9,-100.00,SW,214,1.0,7.0,52,0.00,,,0.00,meteohub,2013-06-11 21:44:00,
2013-06-11 16:49:00,90.1,69.6,-100.00,West,263,0.0,10.0,51,0.00,,,0.00,meteohub,2013-06-11 21:49:00,
2013-06-11 16:54:00,90.5,70.0,-100.00,SSW,207,0.0,11.0,51,0.00,,,0.00,meteohub,2013-06-11 21:54:00,
2013-06-11 16:59:00,90.3,69.8,-100.00,SW,220,0.0,12.0,51,0.00,,,0.00,meteohub,2013-06-11 21:59:00,
2013-06-11 17:04:00,90.0,70.0,-100.00,SW,222,0.0,12.0,52,0.00,,,0.00,meteohub,2013-06-11 22:04:00,
2013-06-11 17:09:00,89.8,69.8,-100.00,SW,214,0.0,12.0,52,0.00,,,0.00,meteohub,2013-06-11 22:09:00,
2013-06-11 17:14:00,89.6,70.2,-100.00,SW,223,0.0,11.0,53,0.00,,,0.00,meteohub,2013-06-11 22:14:00,
2013-06-11 17:19:00,89.2,69.8,-100.00,SSW,210,0.0,13.0,53,0.00,,,0.00,meteohub,2013-06-11 22:19:00,
2013-06-11 17:24:00,89.1,70.2,-100.00,SW,221,0.0,13.0,54,0.00,,,0.00,meteohub,2013-06-11 22:24:00,
2013-06-11 17:29:00,89.1,70.2,-100.00,SW,215,6.0,13.0,54,0.00,,,0.00,meteohub,2013-06-11 22:29:00,
2013-06-11 17:34:00,88.9,70.7,-100.00,SSW,210,0.0,7.0,55,0.00,,,0.00,meteohub,2013-06-11 22:34:00,
2013-06-11 17:39:00,89.2,70.9,-100.00,SW,215,0.0,7.0,55,0.00,,,0.00,meteohub,2013-06-11 22:39:00,
2013-06-11 17:44:00,89.2,70.9,-100.00,SSW,211,0.0,6.0,55,0.00,,,0.00,meteohub,2013-06-11 22:44:00,
2013-06-11 17:49:00,89.1,71.2,-100.00,SW,229,0.0,5.0,56,0.00,,,0.00,meteohub,2013-06-11 22:49:00,
2013-06-11 17:54:00,89.1,71.2,-100.00,SSW,206,0.0,8.0,56,0.00,,,0.00,meteohub,2013-06-11 22:54:00,
2013-06-11 17:59:00,88.5,70.9,-100.00,SW,234,3.0,8.0,56,0.00,,,0.00,meteohub,2013-06-11 22:59:00,
2013-06-11 18:04:00,88.5,70.9,-100.00,SW,218,0.0,8.0,56,0.00,,,0.00,meteohub,2013-06-11 23:04:00,
2013-06-11 18:09:00,88.5,70.9,-100.00,SW,219,1.0,9.0,56,0.00,,,0.00,meteohub,2013-06-11 23:09:00,
2013-06-11 18:14:00,88.2,71.6,-100.00,SW,215,0.0,9.0,58,0.00,,,0.00,meteohub,2013-06-11 23:14:00,
2013-06-11 18:19:00,87.8,71.2,-100.00,SSW,207,0.0,7.0,58,0.00,,,0.00,meteohub,2013-06-11 23:19:00,
2013-06-11 18:24:00,87.6,71.6,-100.00,SSW,207,0.0,5.0,59,0.00,,,0.00,meteohub,2013-06-11 23:24:00,
2013-06-11 18:29:00,87.4,71.4,-100.00,SSW,206,0.0,5.0,59,0.00,,,0.00,meteohub,2013-06-11 23:29:00,
2013-06-11 18:34:00,87.1,71.1,-100.00,SSW,206,0.0,1.0,59,0.00,,,0.00,meteohub,2013-06-11 23:34:00,
2013-06-11 18:39:00,87.1,71.4,-100.00,SSW,206,0.0,1.0,60,0.00,,,0.00,meteohub,2013-06-11 23:39:00,
2013-06-11 18:44:00,86.9,71.4,-100.00,SSW,206,0.0,1.0,60,0.00,,,0.00,meteohub,2013-06-11 23:44:00,
2013-06-11 18:49:00,86.9,71.8,-100.00,SSW,206,0.0,1.0,61,0.00,,,0.00,meteohub,2013-06-11 23:49:00,
2013-06-11 18:54:00,86.5,72.0,-100.00,SSW,206,0.0,1.0,62,0.00,,,0.00,meteohub,2013-06-11 23:54:00,
2013-06-11 18:59:00,86.2,72.1,-100.00,SSW,205,0.0,1.0,63,0.00,,,0.00,meteohub,2013-06-11 23:59:00,
2013-06-11 19:04:00,86.0,72.3,-100.00,SSW,205,0.0,1.0,64,0.00,,,0.00,meteohub,2013-06-12 00:04:00,
2013-06-11 19:09:00,85.6,72.1,-100.00,SSW,205,0.0,1.0,64,0.00,,,0.00,meteohub,2013-06-12 00:09:00,
2013-06-11 19:14:00,85.5,72.0,-100.00,SSW,203,0.0,1.0,64,0.00,,,0.00,meteohub,2013-06-12 00:14:00,
2013-06-11 19:19:00,85.1,72.0,-100.00,SSW,202,0.0,0.0,65,0.00,,,0.00,meteohub,2013-06-12 00:19:00,
2013-06-11 19:24:00,84.7,72.1,-100.00,South,186,0.0,1.0,66,0.00,,,0.00,meteohub,2013-06-12 00:24:00,
2013-06-11 19:29:00,84.4,72.1,-100.00,SE,142,0.0,1.0,67,0.00,,,0.00,meteohub,2013-06-12 00:29:00,
2013-06-11 19:34:00,84.0,72.3,-100.00,SE,142,0.0,1.0,68,0.00,,,0.00,meteohub,2013-06-12 00:34:00,
2013-06-11 19:39:00,83.8,72.1,-100.00,SE,142,0.0,1.0,68,0.00,,,0.00,meteohub,2013-06-12 00:39:00,
2013-06-11 19:44:00,83.5,72.3,-100.00,SE,142,0.0,1.0,69,0.00,,,0.00,meteohub,2013-06-12 00:44:00,
2013-06-11 19:49:00,83.1,72.0,-100.00,SE,142,0.0,1.0,69,0.00,,,0.00,meteohub,2013-06-12 00:49:00,
2013-06-11 19:54:00,83.1,72.3,-100.00,SE,142,0.0,1.0,70,0.00,,,0.00,meteohub,2013-06-12 00:54:00,
2013-06-11 19:59:00,82.8,72.0,-100.00,SE,142,0.0,1.0,70,0.00,,,0.00,meteohub,2013-06-12 00:59:00,
2013-06-11 20:04:00,82.6,71.8,-100.00,SE,142,0.0,0.0,70,0.00,,,0.00,meteohub,2013-06-12 01:04:00,
2013-06-11 20:09:00,82.2,72.0,-100.00,SE,142,0.0,0.0,71,0.00,,,0.00,meteohub,2013-06-12 01:09:00,
2013-06-11 20:14:00,82.0,71.8,-100.00,SE,142,0.0,1.0,71,0.00,,,0.00,meteohub,2013-06-12 01:14:00,
2013-06-11 20:19:00,81.9,72.0,-100.00,SE,142,0.0,1.0,72,0.00,,,0.00,meteohub,2013-06-12 01:19:00,
2013-06-11 20:24:00,81.7,71.8,-100.00,SE,142,0.0,0.0,72,0.00,,,0.00,meteohub,2013-06-12 01:24:00,
2013-06-11 20:29:00,81.5,72.0,-100.00,SE,142,0.0,0.0,73,0.00,,,0.00,meteohub,2013-06-12 01:29:00,
2013-06-11 20:34:00,81.7,72.1,-100.00,SE,142,0.0,1.0,73,0.00,,,0.00,meteohub,2013-06-12 01:34:00,
2013-06-11 20:39:00,81.7,72.1,-100.00,SE,141,0.0,1.0,73,0.00,,,0.00,meteohub,2013-06-12 01:39:00,
2013-06-11 20:44:00,81.1,72.1,-100.00,SE,142,0.0,1.0,74,0.00,,,0.00,meteohub,2013-06-12 01:44:00,
2013-06-11 20:49:00,81.0,72.3,-100.00,SE,139,0.0,1.0,75,0.00,,,0.00,meteohub,2013-06-12 01:49:00,
2013-06-11 20:58:00,80.8,72.1,-100.00,SE,137,0.0,1.0,75,0.00,,,0.00,meteohub,2013-06-12 01:58:00,
2013-06-11 21:03:00,80.8,72.1,-100.00,SE,137,0.0,1.0,75,0.00,,,0.00,meteohub,2013-06-12 02:03:00,
2013-06-11 21:08:00,80.6,72.3,-100.00,NNW,348,0.0,0.0,76,0.00,,,0.00,meteohub,2013-06-12 02:08:00,
2013-06-11 21:13:00,80.4,72.1,-100.00,NNW,343,0.0,1.0,76,0.00,,,0.00,meteohub,2013-06-12 02:13:00,
2013-06-11 21:18:00,80.2,72.0,-100.00,NNW,343,0.0,1.0,76,0.00,,,0.00,meteohub,2013-06-12 02:18:00,
2013-06-11 21:23:00,80.2,72.0,-100.00,NNW,343,0.0,1.0,76,0.00,,,0.00,meteohub,2013-06-12 02:23:00,
2013-06-11 21:28:00,80.1,72.1,-100.00,NNW,342,0.0,0.0,77,0.00,,,0.00,meteohub,2013-06-12 02:28:00,
2013-06-11 21:33:00,79.9,72.0,-100.00,NNW,343,0.0,0.0,77,0.00,,,0.00,meteohub,2013-06-12 02:33:00,
2013-06-11 21:38:00,79.7,72.1,-100.00,NNW,342,0.0,0.0,78,0.00,,,0.00,meteohub,2013-06-12 02:38:00,
2013-06-11 21:43:00,79.5,72.1,-100.00,NNW,343,0.0,0.0,78,0.00,,,0.00,meteohub,2013-06-12 02:43:00,
2013-06-11 21:48:00,79.5,72.1,-100.00,NNW,342,0.0,0.0,78,0.00,,,0.00,meteohub,2013-06-12 02:48:00,
2013-06-11 21:53:00,79.3,72.0,-100.00,NNW,343,0.0,0.0,78,0.00,,,0.00,meteohub,2013-06-12 02:53:00,
2013-06-11 21:58:00,79.2,72.1,-100.00,NNW,342,0.0,0.0,79,0.00,,,0.00,meteohub,2013-06-12 02:58:00,
2013-06-11 22:03:00,78.8,71.8,-100.00,NNW,343,0.0,0.0,79,0.00,,,0.00,meteohub,2013-06-12 03:03:00,
2013-06-11 22:08:00,78.6,72.0,-100.00,NNW,343,0.0,0.0,80,0.00,,,0.00,meteohub,2013-06-12 03:08:00,
2013-06-11 22:13:00,78.4,71.8,-100.00,NNW,342,0.0,0.0,80,0.00,,,0.00,meteohub,2013-06-12 03:13:00,
2013-06-11 22:18:00,78.1,71.4,-100.00,NNW,343,0.0,0.0,80,0.00,,,0.00,meteohub,2013-06-12 03:18:00,
2013-06-11 22:23:00,77.7,71.4,-100.00,NNW,342,0.0,0.0,81,0.00,,,0.00,meteohub,2013-06-12 03:23:00,
2013-06-11 22:28:00,77.4,71.4,-100.00,NNW,343,0.0,0.0,82,0.00,,,0.00,meteohub,2013-06-12 03:28:00,
2013-06-11 22:34:00,77.2,71.2,-100.00,NNW,343,0.0,0.0,82,0.00,,,0.00,meteohub,2013-06-12 03:34:00,
2013-06-11 22:39:00,77.0,71.1,-100.00,NNW,343,0.0,0.0,82,0.00,,,0.00,meteohub,2013-06-12 03:39:00,
2013-06-11 22:44:00,76.8,71.2,-100.00,NNW,343,0.0,0.0,83,0.00,,,0.00,meteohub,2013-06-12 03:44:00,
2013-06-11 22:49:00,76.8,71.2,-100.00,NNW,342,0.0,0.0,83,0.00,,,0.00,meteohub,2013-06-12 03:49:00,
2013-06-11 22:54:00,76.8,71.2,-100.00,NNW,343,0.0,0.0,83,0.00,,,0.00,meteohub,2013-06-12 03:54:00,
2013-06-11 22:59:00,76.6,71.1,-100.00,NNW,343,0.0,0.0,83,0.00,,,0.00,meteohub,2013-06-12 03:59:00,
2013-06-11 23:01:00,76.6,71.4,-100.00,NNW,343,0.0,0.0,84,0.00,,,0.00,meteohub,2013-06-12 04:01:00,
2013-06-11 23:06:00,76.6,71.4,-100.00,NNW,343,0.0,0.0,84,0.00,,,0.00,meteohub,2013-06-12 04:06:00,
2013-06-11 23:11:00,76.8,71.6,-100.00,NNW,343,0.0,0.0,84,0.00,,,0.00,meteohub,2013-06-12 04:11:00,
2013-06-11 23:16:00,77.0,71.4,-100.00,NNW,343,0.0,1.0,83,0.00,,,0.00,meteohub,2013-06-12 04:16:00,
2013-06-11 23:21:00,77.2,71.6,-100.00,NNW,343,0.0,1.0,83,0.00,,,0.00,meteohub,2013-06-12 04:21:00,
2013-06-11 23:26:00,77.2,71.2,-100.00,NW,321,0.0,0.0,82,0.00,,,0.00,meteohub,2013-06-12 04:26:00,
2013-06-11 23:31:00,77.0,71.1,-100.00,NW,320,0.0,1.0,82,0.00,,,0.00,meteohub,2013-06-12 04:31:00,
2013-06-11 23:36:00,76.6,71.1,-100.00,NW,320,0.0,1.0,83,0.00,,,0.00,meteohub,2013-06-12 04:36:00,
2013-06-11 23:41:00,76.6,71.1,-100.00,West,281,0.0,1.0,83,0.00,,,0.00,meteohub,2013-06-12 04:41:00,
2013-06-11 23:46:00,76.6,71.1,-100.00,SW,236,0.0,1.0,83,0.00,,,0.00,meteohub,2013-06-12 04:46:00,
2013-06-11 23:51:00,76.6,71.1,-100.00,SSW,207,0.0,1.0,83,0.00,,,0.00,meteohub,2013-06-12 04:51:00,
2013-06-11 23:54:00,76.6,70.7,-100.00,SSW,206,0.0,1.0,82,0.00,,,0.00,meteohub,2013-06-12 04:54:00,
2013-06-11 23:59:00,76.8,70.9,-100.00,SSW,194,1.0,3.0,82,0.00,,,0.00,meteohub,2013-06-12 04:59:00,